• Join FlightAware (Why Join?)
  • Login
  • US Flag 
03:23AM EDT


 

Airport Tracker/Info


-or-


 

Live Flight TrackerFlight Track Log ✈ CFS774 ✈ 11-May-2013 ✈ KABQ - KFMN

Flight Track Log - Related Links

Times and Time Zones

All times are in EDT time to prevent confusion due to time zone crossing. See the CFS774 flight status page for this flight to view local times or setup timezone preferences in your user account.

Time Position Orientation Groundspeed Altitude Reporting Facility
EDT Latitude Longitude Course Direction KTS MPH feet Rate Location/Type
09:58AM 35.0369 -106.6147 346° North 77 89 5,800  Level Albuquerque Center
09:59AM 35.0497 -106.6269 322° Northwest 94 108 6,100 720 Climbing Albuquerque Center
10:00AM 35.0733 -106.6519 319° Northwest 120 138 6,900 660 Climbing Albuquerque Center
10:01AM 35.0972 -106.6794 317° Northwest 126 145 7,500 600 Climbing Albuquerque Center
10:02AM 35.1219 -106.7094 315° West 123 142 8,200 540 Climbing Albuquerque Center
10:03AM 35.1450 -106.7464 307° West 131 151 8,700 540 Climbing Albuquerque Center
10:04AM 35.0793 -106.8304 346° North  Level FlightAware Approximate
10:04AM 35.1700 -106.7817 311° West 136 157 9,300  Level Albuquerque Center
10:05AM 35.1950 -106.8189 309° West 140 161 9,900 540 Climbing Albuquerque Center
10:06AM 35.2269 -106.8653 310° West 146 168 10,500 540 Climbing Albuquerque Center
10:07AM 35.2625 -106.8881 332° Northwest 147 169 11,000 480 Climbing Albuquerque Center
10:08AM 35.2997 -106.8986 347° North 141 162 11,500 480 Climbing Albuquerque Center
10:09AM 35.3381 -106.9136 342° North 143 165 12,000 240 Climbing Albuquerque Center
10:10AM 35.3803 -106.9267 346° North 152 175 12,000  Level Albuquerque Center
10:11AM 35.4267 -106.9411 346° North 166 191 12,000  Level Albuquerque Center
10:12AM 35.4744 -106.9567 345° North 174 200 12,000  Level Albuquerque Center
10:13AM 35.5225 -106.9686 349° North 175 201 12,000  Level Albuquerque Center
10:14AM 35.5686 -106.9872 342° North 175 201 12,000  Level Albuquerque Center
10:15AM 35.6153 -107.0056 342° North 176 203 12,000  Level Albuquerque Center
10:16AM 35.6561 -107.0450 322° Northwest 183 211 12,000  Level Albuquerque Center
10:17AM 35.7022 -107.0953 318° Northwest 184 212 12,000  Level Albuquerque Center
10:18AM 35.7436 -107.1308 325° Northwest 182 209 12,000  Level Albuquerque Center
10:19AM 35.7839 -107.1686 323° Northwest 182 209 12,000  Level Albuquerque Center
10:20AM 35.8286 -107.2111 322° Northwest 184 212 12,000  Level Albuquerque Center
10:21AM 35.8669 -107.2467 323° Northwest 181 208 12,000  Level Albuquerque Center
10:22AM 35.9058 -107.2839 322° Northwest 184 212 12,000  Level Albuquerque Center
10:23AM 35.9506 -107.3267 322° Northwest 182 209 12,000  Level Albuquerque Center
10:24AM 35.9881 -107.3631 322° Northwest 180 207 12,000  Level Albuquerque Center
10:25AM 36.0331 -107.4050 323° Northwest 180 207 12,000  Level Albuquerque Center
10:26AM 36.0717 -107.4403 324° Northwest 181 208 12,000  Level Albuquerque Center
10:27AM 36.1092 -107.4769 322° Northwest 180 207 12,000  Level Albuquerque Center
10:28AM 36.1525 -107.5203 321° Northwest 180 207 12,000  Level Albuquerque Center
10:29AM 36.1897 -107.5558 322° Northwest 178 205 12,000  Level Albuquerque Center
10:30AM 36.2347 -107.5975 323° Northwest 179 206 12,000  Level Albuquerque Center
10:31AM 36.2731 -107.6356 321° Northwest 182 209 12,000  Level Albuquerque Center
10:32AM 36.3178 -107.6778 323° Northwest 182 209 12,000  Level Albuquerque Center
10:33AM 36.3558 -107.7156 321° Northwest 183 211 12,000  Level Albuquerque Center
10:34AM 36.3925 -107.7511 322° Northwest 178 205 12,000 -60 Level Albuquerque Center
10:35AM 36.4317 -107.7956 318° Northwest 173 199 11,900 -300 Descending Albuquerque Center
10:36AM 36.4647 -107.8408 312° West 181 208 11,400 -360 Descending Denver Center
10:37AM 36.4994 -107.8894 312° West 191 220 11,200 -540 Descending Denver Center
10:38AM 36.5378 -107.9461 310° West 190 219 10,300 -720 Descending Denver Center
10:40AM 36.5747 -107.9953 313° West 195 224 9,800 -660 Descending Denver Center
10:41AM 36.6158 -108.0533 311° West 199 229 9,000 -840 Descending Denver Center
10:42AM 36.6506 -108.1044 310° West 200 230 8,200 -900 Descending Denver Center
10:43AM 36.6914 -108.1636 311° West 201 231 7,200 -780 Descending Denver Center
10:44AM 36.7267 -108.2106 313° West 199 229 6,700 -660 Descending Denver Center
10:45AM 36.7381 -108.2494 290° West 143 165 5,900 -780 Descending Denver Center